createdAt,value
2019-03-15T00:02:43.567Z,6.90
2019-03-15T00:07:49.086Z,7.10
2019-03-15T00:12:54.576Z,7.30
2019-03-15T00:18:00.136Z,7.50
2019-03-15T00:23:05.866Z,7.70
2019-03-15T00:28:11.361Z,7.80
2019-03-15T00:33:16.934Z,7.90
2019-03-15T00:38:22.487Z,8.00
2019-03-15T00:43:28.069Z,8.10
2019-03-15T00:48:33.647Z,8.20
2019-03-15T00:53:39.206Z,8.20
2019-03-15T00:58:44.752Z,8.30
2019-03-15T01:03:50.340Z,8.30
2019-03-15T01:08:55.922Z,8.20
2019-03-15T01:14:01.493Z,8.10
2019-03-15T01:19:07.040Z,8.00
2019-03-15T01:24:12.512Z,7.90
2019-03-15T01:29:18.025Z,7.90
2019-03-15T01:34:23.599Z,8.00
2019-03-15T01:39:29.092Z,8.00
2019-03-15T01:44:34.621Z,8.00
2019-03-15T01:49:40.145Z,7.90
2019-03-15T01:54:45.657Z,8.00
2019-03-15T01:59:51.230Z,8.10
2019-03-15T02:04:57.627Z,8.00
2019-03-15T02:10:03.201Z,7.90
2019-03-15T02:15:09.708Z,7.80
2019-03-15T02:20:15.207Z,7.70
2019-03-15T02:25:20.719Z,7.60
2019-03-15T02:30:26.304Z,7.60
2019-03-15T02:35:31.834Z,7.60
2019-03-15T02:40:38.224Z,7.50
2019-03-15T02:45:43.835Z,7.60
2019-03-15T02:50:49.481Z,7.70
2019-03-15T02:55:55.004Z,7.80
2019-03-15T03:01:00.520Z,7.90
2019-03-15T03:06:06.045Z,8.00
2019-03-15T03:11:11.630Z,8.00
2019-03-15T03:16:18.558Z,8.10
2019-03-15T03:21:24.182Z,8.10
2019-03-15T03:26:29.633Z,8.10
2019-03-15T03:31:35.143Z,8.00
2019-03-15T03:36:40.592Z,8.00
2019-03-15T03:41:46.084Z,8.00
2019-03-15T03:46:52.523Z,8.00
2019-03-15T03:51:58.285Z,8.00
2019-03-15T03:57:03.767Z,8.10
2019-03-15T04:02:09.289Z,8.10
2019-03-15T04:07:14.831Z,8.10
2019-03-15T04:12:20.420Z,8.20
2019-03-15T04:17:25.890Z,8.20
2019-03-15T04:22:31.423Z,8.20
2019-03-15T04:27:36.881Z,8.20
2019-03-15T04:32:42.517Z,8.20
2019-03-15T04:37:48.060Z,8.30
2019-03-15T04:42:53.611Z,8.30
2019-03-15T04:47:59.247Z,8.30
2019-03-15T04:53:04.766Z,8.40
2019-03-15T04:58:10.228Z,8.40
2019-03-15T05:03:15.731Z,8.40
2019-03-15T05:08:21.218Z,8.40
2019-03-15T05:13:26.693Z,8.30
2019-03-15T05:18:32.192Z,8.30
2019-03-15T05:23:37.745Z,8.30
2019-03-15T05:28:43.247Z,8.30
2019-03-15T05:33:48.745Z,8.30
2019-03-15T05:38:59.651Z,8.30
2019-03-15T05:44:05.379Z,8.30
2019-03-15T05:49:10.891Z,8.40
2019-03-15T05:54:16.413Z,8.40
2019-03-15T05:59:21.954Z,8.40
2019-03-15T06:04:27.492Z,8.40
2019-03-15T06:09:32.986Z,8.50
2019-03-15T06:14:38.534Z,8.50
2019-03-15T06:19:44.050Z,8.60
2019-03-15T06:24:49.604Z,8.60
2019-03-15T06:29:55.130Z,8.70
2019-03-15T06:35:00.650Z,8.70
2019-03-15T06:40:06.341Z,8.80
2019-03-15T06:45:11.934Z,8.90
2019-03-15T06:50:17.452Z,8.80
2019-03-15T06:55:22.983Z,8.90
2019-03-15T07:00:28.510Z,8.90
2019-03-15T07:05:33.999Z,9.00
2019-03-15T07:10:39.499Z,9.10
2019-03-15T07:15:45.075Z,9.20
2019-03-15T07:20:50.687Z,9.10
2019-03-15T07:25:56.588Z,9.10
2019-03-15T07:31:02.078Z,9.10
2019-03-15T07:36:07.634Z,9.10
2019-03-15T07:41:13.098Z,9.10
2019-03-15T07:46:18.806Z,9.10
2019-03-15T07:51:24.288Z,9.20
2019-03-15T07:56:29.786Z,9.20
2019-03-15T08:01:35.285Z,9.30
2019-03-15T08:06:40.796Z,9.30
2019-03-15T08:11:46.290Z,9.30
2019-03-15T08:16:51.780Z,9.30
2019-03-15T08:21:57.348Z,9.40
2019-03-15T08:27:02.804Z,9.50
2019-03-15T08:32:08.319Z,9.60
2019-03-15T08:37:13.811Z,9.70
2019-03-15T08:42:19.273Z,9.90
2019-03-15T08:47:24.845Z,10.10
2019-03-15T08:52:30.349Z,10.20
2019-03-15T08:57:36.024Z,10.30
2019-03-15T09:02:41.547Z,10.40
2019-03-15T09:07:47.076Z,10.60
2019-03-15T09:12:52.658Z,10.90
2019-03-15T09:17:58.218Z,11.00
2019-03-15T09:23:03.899Z,11.20
2019-03-15T09:28:09.397Z,11.40
2019-03-15T09:33:14.956Z,11.60
2019-03-15T09:38:20.671Z,11.90
2019-03-15T09:43:26.177Z,12.10
2019-03-15T09:48:31.689Z,12.30
2019-03-15T09:53:37.224Z,12.40
2019-03-15T09:58:42.846Z,12.50
2019-03-15T10:03:48.317Z,12.60
2019-03-15T10:08:53.769Z,12.70
2019-03-15T10:14:02.153Z,12.70
2019-03-15T10:19:06.476Z,12.80
2019-03-15T10:24:15.728Z,13.00
2019-03-15T10:29:20.828Z,13.10
2019-03-15T10:34:26.293Z,13.10
2019-03-15T10:39:31.877Z,13.10
2019-03-15T10:44:37.468Z,13.00
2019-03-15T10:49:43.032Z,13.00
2019-03-15T10:54:48.528Z,13.00
2019-03-15T10:59:54.039Z,13.00
2019-03-15T11:04:59.533Z,13.10
2019-03-15T11:10:05.029Z,13.20
2019-03-15T11:15:10.655Z,13.20
2019-03-15T11:20:16.115Z,13.10
2019-03-15T11:25:21.638Z,13.00
2019-03-15T11:30:27.170Z,12.90
2019-03-15T11:35:32.693Z,12.90
2019-03-15T11:40:38.277Z,13.00
2019-03-15T11:45:44.005Z,13.30
2019-03-15T11:50:49.455Z,13.60
2019-03-15T11:55:54.954Z,13.80
2019-03-15T12:01:00.477Z,14.10
2019-03-15T12:06:06.120Z,14.50
2019-03-15T12:11:11.578Z,14.80
2019-03-15T12:16:17.298Z,15.00
2019-03-15T12:21:22.931Z,14.90
2019-03-15T12:26:39.753Z,14.70
2019-03-15T12:31:35.662Z,14.70
2019-03-15T12:36:41.146Z,14.80
2019-03-15T12:41:46.749Z,14.90
2019-03-15T12:46:52.274Z,14.80
2019-03-15T12:51:57.752Z,14.90
2019-03-15T12:57:03.384Z,14.70
2019-03-15T13:02:08.896Z,14.50
2019-03-15T13:07:14.387Z,14.40
2019-03-15T13:12:19.882Z,14.40
2019-03-15T13:17:25.353Z,14.20
2019-03-15T13:22:30.885Z,14.20
2019-03-15T13:27:36.398Z,14.20
2019-03-15T13:32:43.432Z,14.10
2019-03-15T13:37:49.039Z,14.00
2019-03-15T13:42:54.530Z,13.80
2019-03-15T13:48:00.015Z,13.80
2019-03-15T13:53:05.557Z,13.90
2019-03-15T13:58:11.100Z,13.90
2019-03-15T14:03:16.707Z,13.90
2019-03-15T14:08:22.288Z,13.80
2019-03-15T14:13:27.942Z,13.80
2019-03-15T14:18:33.437Z,13.80
2019-03-15T14:23:39.194Z,14.00
2019-03-15T14:28:44.864Z,14.00
2019-03-15T14:33:50.526Z,14.00
2019-03-15T14:38:56.056Z,14.10
2019-03-15T14:44:01.785Z,14.10
2019-03-15T14:49:07.597Z,14.10
2019-03-15T14:54:13.152Z,14.10
2019-03-15T14:59:19.126Z,14.10
2019-03-15T15:04:25.068Z,14.10
2019-03-15T15:09:30.952Z,14.10
2019-03-15T15:14:36.436Z,14.10
2019-03-15T15:19:41.931Z,14.00
2019-03-15T15:24:47.454Z,13.80
2019-03-15T15:29:52.957Z,13.70
2019-03-15T15:34:58.411Z,13.60
2019-03-15T15:40:03.997Z,13.50
2019-03-15T15:45:17.504Z,13.50
2019-03-15T15:50:23.077Z,13.40
2019-03-15T15:55:28.708Z,13.30
2019-03-15T16:00:34.193Z,13.30
2019-03-15T16:05:39.738Z,13.30
2019-03-15T16:10:45.251Z,13.30
2019-03-15T16:15:50.897Z,13.30
2019-03-15T16:20:56.423Z,13.20
2019-03-15T16:26:01.932Z,13.20
2019-03-15T16:31:07.668Z,13.20
2019-03-15T16:36:13.149Z,13.10
2019-03-15T16:41:18.657Z,13.10
2019-03-15T16:46:24.181Z,13.10
2019-03-15T16:51:29.660Z,13.00
2019-03-15T16:56:35.224Z,13.00
2019-03-15T17:01:40.687Z,13.10
2019-03-15T17:06:46.258Z,13.10
2019-03-15T17:11:51.760Z,13.10
2019-03-15T17:16:57.299Z,12.90
2019-03-15T17:22:02.829Z,12.80
2019-03-15T17:27:08.447Z,12.70
2019-03-15T17:32:14.015Z,12.70
2019-03-15T17:37:19.588Z,12.60
2019-03-15T17:42:25.326Z,12.60
2019-03-15T17:47:30.970Z,12.50
2019-03-15T17:52:36.495Z,12.50
2019-03-15T17:57:45.329Z,12.50
2019-03-15T18:02:49.309Z,12.40
2019-03-15T18:07:54.873Z,12.30
2019-03-15T18:13:00.400Z,12.30
2019-03-15T18:18:05.916Z,12.30
2019-03-15T18:23:11.496Z,12.30
2019-03-15T18:28:17.066Z,12.30
2019-03-15T18:33:22.569Z,12.30
2019-03-15T18:38:28.379Z,12.30
2019-03-15T18:43:33.857Z,12.20
2019-03-15T18:48:39.421Z,12.20
2019-03-15T18:53:44.919Z,12.10
2019-03-15T18:58:50.438Z,12.10
2019-03-15T19:03:56.203Z,12.10
2019-03-15T19:09:02.087Z,12.10
2019-03-15T19:14:07.667Z,12.10
2019-03-15T19:19:13.148Z,12.00
2019-03-15T19:24:18.673Z,12.00
2019-03-15T19:29:24.429Z,11.90
2019-03-15T19:34:29.914Z,11.80
2019-03-15T19:39:35.424Z,11.80
2019-03-15T19:44:40.974Z,11.70
2019-03-15T19:49:46.577Z,11.70
2019-03-15T19:55:00.267Z,11.60
2019-03-15T20:00:07.790Z,11.60
2019-03-15T20:05:06.729Z,11.60
2019-03-15T20:10:16.163Z,11.50
2019-03-15T20:15:20.239Z,11.50
2019-03-15T20:20:25.728Z,11.60
2019-03-15T20:25:31.250Z,11.60
2019-03-15T20:30:36.726Z,11.60
2019-03-15T20:35:42.193Z,11.60
2019-03-15T20:40:47.731Z,11.60
2019-03-15T20:45:53.417Z,11.60
2019-03-15T20:50:59.051Z,11.60
2019-03-15T20:56:04.501Z,11.60
2019-03-15T21:01:10.047Z,11.60
2019-03-15T21:06:15.573Z,11.60
2019-03-15T21:11:21.047Z,11.60
2019-03-15T21:16:26.554Z,11.60
2019-03-15T21:21:32.022Z,11.70
2019-03-15T21:26:37.535Z,11.70
2019-03-15T21:31:43.078Z,11.70
2019-03-15T21:36:48.622Z,11.70
2019-03-15T21:41:54.211Z,11.60
2019-03-15T21:46:59.730Z,11.40
2019-03-15T21:52:05.317Z,11.30
2019-03-15T21:57:10.802Z,11.20
2019-03-15T22:02:16.507Z,11.10
2019-03-15T22:07:21.975Z,11.00
2019-03-15T22:12:27.498Z,10.90
2019-03-15T22:17:33.016Z,10.90
2019-03-15T22:22:38.496Z,10.80
2019-03-15T22:27:49.980Z,10.80
2019-03-15T22:32:54.091Z,10.70
2019-03-15T22:37:59.592Z,10.60
2019-03-15T22:43:05.125Z,10.60
2019-03-15T22:48:10.639Z,10.60
2019-03-15T22:53:16.185Z,10.60
2019-03-15T22:58:21.677Z,10.60
2019-03-15T23:03:27.325Z,10.60
2019-03-15T23:08:32.845Z,10.60
2019-03-15T23:13:38.395Z,10.60
2019-03-15T23:18:43.862Z,10.60
2019-03-15T23:23:49.387Z,10.60
2019-03-15T23:28:54.875Z,10.70
2019-03-15T23:34:00.348Z,10.70
2019-03-15T23:39:07.220Z,10.70
2019-03-15T23:44:12.703Z,10.70
2019-03-15T23:49:18.228Z,10.70
2019-03-15T23:54:23.721Z,10.60
2019-03-15T23:59:29.233Z,10.60
